sensor_id;sensor_type;location;lat;lon;timestamp;P1;durP1;ratioP1;P2;durP2;ratioP2
65477;SDS011;53678;39.642;22.430;2023-02-15T00:00:12;25.10;;;13.32;;
65477;SDS011;53678;39.642;22.430;2023-02-15T00:02:38;20.73;;;12.77;;
65477;SDS011;53678;39.642;22.430;2023-02-15T00:05:04;28.10;;;14.23;;
65477;SDS011;53678;39.642;22.430;2023-02-15T00:07:31;21.25;;;13.30;;
65477;SDS011;53678;39.642;22.430;2023-02-15T00:09:56;23.27;;;14.10;;
65477;SDS011;53678;39.642;22.430;2023-02-15T00:12:22;23.80;;;12.20;;
65477;SDS011;53678;39.642;22.430;2023-02-15T00:14:48;21.42;;;12.52;;
65477;SDS011;53678;39.642;22.430;2023-02-15T00:17:13;22.40;;;12.45;;
65477;SDS011;53678;39.642;22.430;2023-02-15T00:19:39;19.27;;;11.57;;
65477;SDS011;53678;39.642;22.430;2023-02-15T00:22:05;20.73;;;12.38;;
65477;SDS011;53678;39.642;22.430;2023-02-15T00:24:31;22.40;;;12.13;;
65477;SDS011;53678;39.642;22.430;2023-02-15T00:26:57;22.40;;;11.30;;
65477;SDS011;53678;39.642;22.430;2023-02-15T00:29:23;21.00;;;12.07;;
65477;SDS011;53678;39.642;22.430;2023-02-15T00:31:49;20.48;;;11.40;;
65477;SDS011;53678;39.642;22.430;2023-02-15T00:36:46;25.13;;;13.05;;
65477;SDS011;53678;39.642;22.430;2023-02-15T00:39:13;22.80;;;13.60;;
65477;SDS011;53678;39.642;22.430;2023-02-15T00:41:41;22.33;;;13.00;;
65477;SDS011;53678;39.642;22.430;2023-02-15T00:44:07;27.42;;;14.80;;
65477;SDS011;53678;39.642;22.430;2023-02-15T00:46:33;24.10;;;14.23;;
65477;SDS011;53678;39.642;22.430;2023-02-15T00:48:58;23.27;;;13.45;;
65477;SDS011;53678;39.642;22.430;2023-02-15T00:51:24;24.02;;;13.55;;
65477;SDS011;53678;39.642;22.430;2023-02-15T00:53:50;25.27;;;14.52;;
65477;SDS011;53678;39.642;22.430;2023-02-15T00:56:16;22.05;;;14.23;;
65477;SDS011;53678;39.642;22.430;2023-02-15T00:58:42;22.92;;;13.40;;
65477;SDS011;53678;39.642;22.430;2023-02-15T01:01:10;27.52;;;15.27;;
65477;SDS011;53678;39.642;22.430;2023-02-15T01:03:36;28.55;;;14.48;;
65477;SDS011;53678;39.642;22.430;2023-02-15T01:06:03;23.90;;;14.77;;
65477;SDS011;53678;39.642;22.430;2023-02-15T01:08:29;25.10;;;14.23;;
65477;SDS011;53678;39.642;22.430;2023-02-15T01:10:55;26.83;;;15.35;;
65477;SDS011;53678;39.642;22.430;2023-02-15T01:13:23;29.25;;;16.05;;
65477;SDS011;53678;39.642;22.430;2023-02-15T01:15:54;26.30;;;13.68;;
65477;SDS011;53678;39.642;22.430;2023-02-15T01:18:21;26.98;;;14.82;;
65477;SDS011;53678;39.642;22.430;2023-02-15T01:20:47;28.75;;;15.20;;
65477;SDS011;53678;39.642;22.430;2023-02-15T01:23:14;27.77;;;14.80;;
65477;SDS011;53678;39.642;22.430;2023-02-15T01:25:40;25.92;;;13.85;;
65477;SDS011;53678;39.642;22.430;2023-02-15T01:28:06;27.45;;;14.20;;
65477;SDS011;53678;39.642;22.430;2023-02-15T01:30:32;26.50;;;14.48;;
65477;SDS011;53678;39.642;22.430;2023-02-15T01:32:59;25.15;;;14.52;;
65477;SDS011;53678;39.642;22.430;2023-02-15T01:35:26;23.67;;;13.70;;
65477;SDS011;53678;39.642;22.430;2023-02-15T01:37:53;25.58;;;15.30;;
65477;SDS011;53678;39.642;22.430;2023-02-15T01:40:20;27.08;;;15.75;;
65477;SDS011;53678;39.642;22.430;2023-02-15T01:42:49;28.15;;;16.30;;
65477;SDS011;53678;39.642;22.430;2023-02-15T01:45:21;26.55;;;14.52;;
65477;SDS011;53678;39.642;22.430;2023-02-15T01:47:56;27.98;;;14.43;;
65477;SDS011;53678;39.642;22.430;2023-02-15T01:50:34;25.40;;;14.63;;
65477;SDS011;53678;39.642;22.430;2023-02-15T01:53:25;30.23;;;14.10;;
65477;SDS011;53678;39.642;22.430;2023-02-15T01:55:57;25.90;;;14.30;;
65477;SDS011;53678;39.642;22.430;2023-02-15T01:58:28;28.55;;;14.88;;
65477;SDS011;53678;39.642;22.430;2023-02-15T02:00:56;24.70;;;14.23;;
65477;SDS011;53678;39.642;22.430;2023-02-15T02:03:29;28.05;;;15.75;;
65477;SDS011;53678;39.642;22.430;2023-02-15T02:06:04;29.38;;;15.52;;
65477;SDS011;53678;39.642;22.430;2023-02-15T02:08:30;26.75;;;14.70;;
65477;SDS011;53678;39.642;22.430;2023-02-15T02:10:57;23.52;;;13.68;;
65477;SDS011;53678;39.642;22.430;2023-02-15T02:13:22;22.48;;;13.25;;
65477;SDS011;53678;39.642;22.430;2023-02-15T02:16:09;28.05;;;15.43;;
65477;SDS011;53678;39.642;22.430;2023-02-15T02:18:55;25.90;;;15.07;;
65477;SDS011;53678;39.642;22.430;2023-02-15T02:33:12;25.83;;;14.93;;
65477;SDS011;53678;39.642;22.430;2023-02-15T02:38:26;30.80;;;16.20;;
65477;SDS011;53678;39.642;22.430;2023-02-15T02:41:17;28.20;;;15.10;;
65477;SDS011;53678;39.642;22.430;2023-02-15T02:46:53;28.60;;;14.60;;
65477;SDS011;53678;39.642;22.430;2023-02-15T02:51:59;30.35;;;14.20;;
65477;SDS011;53678;39.642;22.430;2023-02-15T02:54:27;25.27;;;14.15;;
65477;SDS011;53678;39.642;22.430;2023-02-15T02:56:53;25.00;;;13.50;;
65477;SDS011;53678;39.642;22.430;2023-02-15T02:59:24;25.80;;;13.55;;
65477;SDS011;53678;39.642;22.430;2023-02-15T03:02:07;23.48;;;13.65;;
65477;SDS011;53678;39.642;22.430;2023-02-15T03:04:58;22.33;;;13.93;;
65477;SDS011;53678;39.642;22.430;2023-02-15T03:07:29;24.55;;;13.63;;
65477;SDS011;53678;39.642;22.430;2023-02-15T03:09:58;25.70;;;14.70;;
65477;SDS011;53678;39.642;22.430;2023-02-15T03:14:54;21.23;;;12.82;;
65477;SDS011;53678;39.642;22.430;2023-02-15T03:17:26;25.70;;;14.05;;
65477;SDS011;53678;39.642;22.430;2023-02-15T03:19:54;25.02;;;13.43;;
65477;SDS011;53678;39.642;22.430;2023-02-15T03:22:46;25.15;;;14.38;;
65477;SDS011;53678;39.642;22.430;2023-02-15T03:25:17;26.63;;;15.18;;
65477;SDS011;53678;39.642;22.430;2023-02-15T03:27:48;29.55;;;15.05;;
65477;SDS011;53678;39.642;22.430;2023-02-15T03:30:18;31.48;;;15.15;;
65477;SDS011;53678;39.642;22.430;2023-02-15T03:32:47;24.70;;;14.45;;
65477;SDS011;53678;39.642;22.430;2023-02-15T03:35:15;28.10;;;15.52;;
65477;SDS011;53678;39.642;22.430;2023-02-15T03:45:56;30.25;;;16.45;;
65477;SDS011;53678;39.642;22.430;2023-02-15T03:48:31;25.70;;;14.98;;
65477;SDS011;53678;39.642;22.430;2023-02-15T03:51:03;30.08;;;17.33;;
65477;SDS011;53678;39.642;22.430;2023-02-15T03:53:52;31.90;;;16.58;;
65477;SDS011;53678;39.642;22.430;2023-02-15T03:56:19;28.60;;;15.43;;
65477;SDS011;53678;39.642;22.430;2023-02-15T03:58:45;26.30;;;15.88;;
65477;SDS011;53678;39.642;22.430;2023-02-15T04:01:50;29.63;;;15.57;;
65477;SDS011;53678;39.642;22.430;2023-02-15T04:04:46;28.13;;;14.93;;
65477;SDS011;53678;39.642;22.430;2023-02-15T04:07:13;28.38;;;15.88;;
65477;SDS011;53678;39.642;22.430;2023-02-15T04:09:38;30.38;;;16.40;;
65477;SDS011;53678;39.642;22.430;2023-02-15T04:12:23;29.60;;;15.45;;
65477;SDS011;53678;39.642;22.430;2023-02-15T04:14:50;27.42;;;15.45;;
65477;SDS011;53678;39.642;22.430;2023-02-15T04:17:35;26.02;;;16.17;;
65477;SDS011;53678;39.642;22.430;2023-02-15T04:20:02;29.52;;;16.80;;
65477;SDS011;53678;39.642;22.430;2023-02-15T04:22:47;26.48;;;15.52;;
65477;SDS011;53678;39.642;22.430;2023-02-15T04:25:31;33.08;;;15.55;;
65477;SDS011;53678;39.642;22.430;2023-02-15T04:27:56;27.63;;;15.45;;
65477;SDS011;53678;39.642;22.430;2023-02-15T04:30:23;28.50;;;15.38;;
65477;SDS011;53678;39.642;22.430;2023-02-15T04:32:50;28.63;;;16.15;;
65477;SDS011;53678;39.642;22.430;2023-02-15T04:35:16;26.63;;;15.48;;
65477;SDS011;53678;39.642;22.430;2023-02-15T04:37:43;31.73;;;16.33;;
65477;SDS011;53678;39.642;22.430;2023-02-15T04:40:10;33.47;;;16.02;;
65477;SDS011;53678;39.642;22.430;2023-02-15T04:42:38;26.85;;;14.77;;
65477;SDS011;53678;39.642;22.430;2023-02-15T04:45:04;30.38;;;16.42;;
65477;SDS011;53678;39.642;22.430;2023-02-15T04:47:31;26.80;;;15.52;;
65477;SDS011;53678;39.642;22.430;2023-02-15T04:49:56;27.95;;;15.38;;
65477;SDS011;53678;39.642;22.430;2023-02-15T04:52:22;28.65;;;15.82;;
65477;SDS011;53678;39.642;22.430;2023-02-15T04:54:48;28.80;;;15.40;;
65477;SDS011;53678;39.642;22.430;2023-02-15T04:57:15;31.17;;;15.10;;
65477;SDS011;53678;39.642;22.430;2023-02-15T04:59:40;27.25;;;15.48;;
65477;SDS011;53678;39.642;22.430;2023-02-15T05:02:06;30.98;;;15.88;;
65477;SDS011;53678;39.642;22.430;2023-02-15T05:04:32;28.23;;;15.68;;
65477;SDS011;53678;39.642;22.430;2023-02-15T05:06:58;26.35;;;15.02;;
65477;SDS011;53678;39.642;22.430;2023-02-15T05:09:24;30.63;;;15.95;;
65477;SDS011;53678;39.642;22.430;2023-02-15T05:11:49;28.65;;;15.07;;
65477;SDS011;53678;39.642;22.430;2023-02-15T05:14:15;32.22;;;16.80;;
65477;SDS011;53678;39.642;22.430;2023-02-15T05:16:41;35.10;;;17.13;;
65477;SDS011;53678;39.642;22.430;2023-02-15T05:19:07;31.77;;;15.75;;
65477;SDS011;53678;39.642;22.430;2023-02-15T05:21:33;39.72;;;18.65;;
65477;SDS011;53678;39.642;22.430;2023-02-15T05:23:59;32.53;;;16.65;;
65477;SDS011;53678;39.642;22.430;2023-02-15T05:26:25;27.83;;;14.57;;
65477;SDS011;53678;39.642;22.430;2023-02-15T05:29:09;30.23;;;15.65;;
65477;SDS011;53678;39.642;22.430;2023-02-15T05:31:35;29.95;;;16.67;;
65477;SDS011;53678;39.642;22.430;2023-02-15T05:34:02;34.20;;;18.08;;
65477;SDS011;53678;39.642;22.430;2023-02-15T05:36:28;26.23;;;16.13;;
65477;SDS011;53678;39.642;22.430;2023-02-15T05:38:54;31.88;;;17.35;;
65477;SDS011;53678;39.642;22.430;2023-02-15T05:41:20;30.85;;;15.82;;
65477;SDS011;53678;39.642;22.430;2023-02-15T05:43:46;33.35;;;16.58;;
65477;SDS011;53678;39.642;22.430;2023-02-15T05:46:11;34.63;;;17.33;;
65477;SDS011;53678;39.642;22.430;2023-02-15T05:48:38;32.92;;;17.58;;
65477;SDS011;53678;39.642;22.430;2023-02-15T05:51:10;34.58;;;18.23;;
65477;SDS011;53678;39.642;22.430;2023-02-15T05:53:42;32.72;;;17.52;;
65477;SDS011;53678;39.642;22.430;2023-02-15T05:56:10;33.60;;;17.05;;
65477;SDS011;53678;39.642;22.430;2023-02-15T05:58:37;28.33;;;16.88;;
65477;SDS011;53678;39.642;22.430;2023-02-15T06:01:08;28.40;;;15.38;;
65477;SDS011;53678;39.642;22.430;2023-02-15T06:03:43;32.22;;;15.45;;
65477;SDS011;53678;39.642;22.430;2023-02-15T06:06:09;32.90;;;16.23;;
65477;SDS011;53678;39.642;22.430;2023-02-15T06:08:36;26.00;;;15.40;;
65477;SDS011;53678;39.642;22.430;2023-02-15T06:11:02;26.63;;;15.15;;
65477;SDS011;53678;39.642;22.430;2023-02-15T06:13:29;27.40;;;15.52;;
65477;SDS011;53678;39.642;22.430;2023-02-15T06:15:55;24.55;;;14.50;;
65477;SDS011;53678;39.642;22.430;2023-02-15T06:18:22;27.50;;;15.98;;
65477;SDS011;53678;39.642;22.430;2023-02-15T06:20:48;26.23;;;15.20;;
65477;SDS011;53678;39.642;22.430;2023-02-15T06:23:14;25.80;;;15.68;;
65477;SDS011;53678;39.642;22.430;2023-02-15T06:25:40;31.25;;;16.88;;
65477;SDS011;53678;39.642;22.430;2023-02-15T06:28:06;25.48;;;15.85;;
65477;SDS011;53678;39.642;22.430;2023-02-15T06:30:32;29.52;;;16.30;;
65477;SDS011;53678;39.642;22.430;2023-02-15T06:32:57;35.55;;;21.58;;
65477;SDS011;53678;39.642;22.430;2023-02-15T06:35:23;30.10;;;17.27;;
65477;SDS011;53678;39.642;22.430;2023-02-15T06:37:49;29.65;;;17.75;;
65477;SDS011;53678;39.642;22.430;2023-02-15T06:40:15;25.70;;;15.43;;
65477;SDS011;53678;39.642;22.430;2023-02-15T06:42:41;27.05;;;17.13;;
65477;SDS011;53678;39.642;22.430;2023-02-15T06:45:07;28.55;;;16.52;;
65477;SDS011;53678;39.642;22.430;2023-02-15T06:47:34;29.35;;;17.13;;
65477;SDS011;53678;39.642;22.430;2023-02-15T06:50:00;30.13;;;16.73;;
65477;SDS011;53678;39.642;22.430;2023-02-15T06:52:26;32.97;;;18.02;;
65477;SDS011;53678;39.642;22.430;2023-02-15T06:54:52;34.03;;;18.38;;
65477;SDS011;53678;39.642;22.430;2023-02-15T06:57:17;30.73;;;18.58;;
65477;SDS011;53678;39.642;22.430;2023-02-15T06:59:43;29.95;;;17.27;;
65477;SDS011;53678;39.642;22.430;2023-02-15T07:02:11;29.85;;;17.70;;
65477;SDS011;53678;39.642;22.430;2023-02-15T07:04:37;33.67;;;18.67;;
65477;SDS011;53678;39.642;22.430;2023-02-15T07:07:03;40.78;;;21.60;;
65477;SDS011;53678;39.642;22.430;2023-02-15T07:09:29;44.47;;;21.45;;
65477;SDS011;53678;39.642;22.430;2023-02-15T07:11:55;36.67;;;20.02;;
65477;SDS011;53678;39.642;22.430;2023-02-15T07:14:39;38.92;;;18.60;;
65477;SDS011;53678;39.642;22.430;2023-02-15T07:17:05;35.58;;;18.70;;
65477;SDS011;53678;39.642;22.430;2023-02-15T07:19:32;40.20;;;19.77;;
65477;SDS011;53678;39.642;22.430;2023-02-15T07:22:00;35.17;;;17.83;;
65477;SDS011;53678;39.642;22.430;2023-02-15T07:24:26;38.78;;;19.23;;
65477;SDS011;53678;39.642;22.430;2023-02-15T07:26:51;39.28;;;21.67;;
65477;SDS011;53678;39.642;22.430;2023-02-15T07:29:17;33.83;;;19.40;;
65477;SDS011;53678;39.642;22.430;2023-02-15T07:31:43;39.17;;;20.38;;
65477;SDS011;53678;39.642;22.430;2023-02-15T07:34:10;38.90;;;19.63;;
65477;SDS011;53678;39.642;22.430;2023-02-15T07:36:36;34.05;;;19.20;;
65477;SDS011;53678;39.642;22.430;2023-02-15T07:39:02;32.25;;;18.70;;
65477;SDS011;53678;39.642;22.430;2023-02-15T07:41:28;33.35;;;18.88;;
65477;SDS011;53678;39.642;22.430;2023-02-15T07:43:55;34.65;;;17.55;;
65477;SDS011;53678;39.642;22.430;2023-02-15T07:46:21;35.72;;;19.13;;
65477;SDS011;53678;39.642;22.430;2023-02-15T07:48:46;32.08;;;19.58;;
65477;SDS011;53678;39.642;22.430;2023-02-15T07:51:13;38.70;;;20.92;;
65477;SDS011;53678;39.642;22.430;2023-02-15T07:53:41;33.70;;;18.88;;
65477;SDS011;53678;39.642;22.430;2023-02-15T07:56:09;36.72;;;19.90;;
65477;SDS011;53678;39.642;22.430;2023-02-15T07:58:37;35.33;;;19.95;;
65477;SDS011;53678;39.642;22.430;2023-02-15T08:01:27;33.78;;;20.67;;
65477;SDS011;53678;39.642;22.430;2023-02-15T08:04:00;31.35;;;18.98;;
65477;SDS011;53678;39.642;22.430;2023-02-15T08:06:27;32.05;;;18.15;;
65477;SDS011;53678;39.642;22.430;2023-02-15T08:08:55;38.13;;;18.95;;
65477;SDS011;53678;39.642;22.430;2023-02-15T08:11:22;35.90;;;20.98;;
65477;SDS011;53678;39.642;22.430;2023-02-15T08:13:52;42.15;;;20.70;;
65477;SDS011;53678;39.642;22.430;2023-02-15T08:16:23;37.15;;;21.88;;
65477;SDS011;53678;39.642;22.430;2023-02-15T08:18:51;41.70;;;21.92;;
65477;SDS011;53678;39.642;22.430;2023-02-15T08:21:18;42.13;;;21.70;;
65477;SDS011;53678;39.642;22.430;2023-02-15T08:23:45;36.03;;;22.05;;
65477;SDS011;53678;39.642;22.430;2023-02-15T08:26:11;34.65;;;20.77;;
65477;SDS011;53678;39.642;22.430;2023-02-15T08:28:37;36.67;;;21.83;;
65477;SDS011;53678;39.642;22.430;2023-02-15T08:31:04;32.35;;;19.42;;
65477;SDS011;53678;39.642;22.430;2023-02-15T08:33:33;35.75;;;20.25;;
65477;SDS011;53678;39.642;22.430;2023-02-15T08:36:08;29.77;;;19.30;;
65477;SDS011;53678;39.642;22.430;2023-02-15T08:38:35;39.15;;;20.52;;
65477;SDS011;53678;39.642;22.430;2023-02-15T08:41:11;35.22;;;19.70;;
65477;SDS011;53678;39.642;22.430;2023-02-15T08:43:39;46.42;;;21.15;;
65477;SDS011;53678;39.642;22.430;2023-02-15T08:46:05;33.60;;;19.35;;
65477;SDS011;53678;39.642;22.430;2023-02-15T08:48:31;61.90;;;21.77;;
65477;SDS011;53678;39.642;22.430;2023-02-15T08:50:57;37.63;;;20.00;;
65477;SDS011;53678;39.642;22.430;2023-02-15T08:53:23;34.38;;;20.17;;
65477;SDS011;53678;39.642;22.430;2023-02-15T08:55:56;52.00;;;20.13;;
65477;SDS011;53678;39.642;22.430;2023-02-15T08:58:23;35.40;;;18.90;;
65477;SDS011;53678;39.642;22.430;2023-02-15T09:00:49;34.10;;;18.48;;
65477;SDS011;53678;39.642;22.430;2023-02-15T09:03:16;36.97;;;18.40;;
65477;SDS011;53678;39.642;22.430;2023-02-15T09:05:41;35.53;;;18.15;;
65477;SDS011;53678;39.642;22.430;2023-02-15T09:08:07;33.22;;;19.33;;
65477;SDS011;53678;39.642;22.430;2023-02-15T09:10:33;26.70;;;16.23;;
65477;SDS011;53678;39.642;22.430;2023-02-15T09:12:59;30.10;;;17.75;;
65477;SDS011;53678;39.642;22.430;2023-02-15T09:15:24;27.58;;;16.90;;
65477;SDS011;53678;39.642;22.430;2023-02-15T09:17:50;30.13;;;16.77;;
65477;SDS011;53678;39.642;22.430;2023-02-15T09:20:17;27.17;;;16.40;;
65477;SDS011;53678;39.642;22.430;2023-02-15T09:22:42;27.55;;;16.08;;
65477;SDS011;53678;39.642;22.430;2023-02-15T09:25:08;29.23;;;17.63;;
65477;SDS011;53678;39.642;22.430;2023-02-15T09:27:35;28.42;;;16.05;;
65477;SDS011;53678;39.642;22.430;2023-02-15T09:30:02;30.25;;;16.42;;
65477;SDS011;53678;39.642;22.430;2023-02-15T09:32:28;20.10;;;12.90;;
65477;SDS011;53678;39.642;22.430;2023-02-15T09:34:54;24.35;;;13.98;;
65477;SDS011;53678;39.642;22.430;2023-02-15T09:37:20;23.90;;;14.95;;
65477;SDS011;53678;39.642;22.430;2023-02-15T09:39:45;25.42;;;15.07;;
65477;SDS011;53678;39.642;22.430;2023-02-15T09:45:13;27.70;;;15.63;;
65477;SDS011;53678;39.642;22.430;2023-02-15T09:53:49;26.38;;;14.25;;
65477;SDS011;53678;39.642;22.430;2023-02-15T10:17:29;25.67;;;14.00;;
65477;SDS011;53678;39.642;22.430;2023-02-15T10:23:04;30.88;;;15.60;;
65477;SDS011;53678;39.642;22.430;2023-02-15T10:28:51;22.48;;;13.73;;
65477;SDS011;53678;39.642;22.430;2023-02-15T10:31:23;29.58;;;19.08;;
65477;SDS011;53678;39.642;22.430;2023-02-15T10:34:14;26.10;;;15.82;;
65477;SDS011;53678;39.642;22.430;2023-02-15T10:39:31;23.95;;;14.77;;
65477;SDS011;53678;39.642;22.430;2023-02-15T10:45:04;25.60;;;14.32;;
65477;SDS011;53678;39.642;22.430;2023-02-15T10:50:30;25.50;;;15.20;;
65477;SDS011;53678;39.642;22.430;2023-02-15T10:59:01;24.75;;;15.45;;
65477;SDS011;53678;39.642;22.430;2023-02-15T11:01:35;26.98;;;14.85;;
65477;SDS011;53678;39.642;22.430;2023-02-15T11:09:49;26.70;;;16.27;;
65477;SDS011;53678;39.642;22.430;2023-02-15T11:12:23;27.52;;;14.00;;
65477;SDS011;53678;39.642;22.430;2023-02-15T11:20:32;23.33;;;14.15;;
65477;SDS011;53678;39.642;22.430;2023-02-15T11:23:17;22.40;;;14.57;;
65477;SDS011;53678;39.642;22.430;2023-02-15T11:25:44;23.95;;;13.82;;
65477;SDS011;53678;39.642;22.430;2023-02-15T11:28:47;21.92;;;13.35;;
65477;SDS011;53678;39.642;22.430;2023-02-15T11:31:13;22.33;;;13.70;;
65477;SDS011;53678;39.642;22.430;2023-02-15T11:33:44;21.40;;;13.93;;
65477;SDS011;53678;39.642;22.430;2023-02-15T11:36:37;24.85;;;12.50;;
65477;SDS011;53678;39.642;22.430;2023-02-15T11:39:09;23.67;;;14.77;;
65477;SDS011;53678;39.642;22.430;2023-02-15T11:41:41;23.08;;;13.73;;
65477;SDS011;53678;39.642;22.430;2023-02-15T11:46:41;24.45;;;15.05;;
65477;SDS011;53678;39.642;22.430;2023-02-15T11:49:14;19.48;;;13.40;;
65477;SDS011;53678;39.642;22.430;2023-02-15T11:52:00;23.50;;;13.13;;
65477;SDS011;53678;39.642;22.430;2023-02-15T11:54:30;24.73;;;13.88;;
65477;SDS011;53678;39.642;22.430;2023-02-15T12:02:35;17.80;;;12.02;;
65477;SDS011;53678;39.642;22.430;2023-02-15T12:05:09;20.70;;;12.52;;
65477;SDS011;53678;39.642;22.430;2023-02-15T12:07:44;21.23;;;12.48;;
65477;SDS011;53678;39.642;22.430;2023-02-15T12:10:27;22.38;;;12.20;;
65477;SDS011;53678;39.642;22.430;2023-02-15T12:13:12;23.65;;;14.02;;
65477;SDS011;53678;39.642;22.430;2023-02-15T12:15:44;19.85;;;11.95;;
65477;SDS011;53678;39.642;22.430;2023-02-15T12:18:32;18.25;;;12.48;;
65477;SDS011;53678;39.642;22.430;2023-02-15T12:21:08;20.70;;;12.93;;
65477;SDS011;53678;39.642;22.430;2023-02-15T12:23:51;25.10;;;13.07;;
65477;SDS011;53678;39.642;22.430;2023-02-15T12:26:24;21.17;;;13.43;;
65477;SDS011;53678;39.642;22.430;2023-02-15T12:28:53;22.95;;;13.25;;
65477;SDS011;53678;39.642;22.430;2023-02-15T12:31:42;19.17;;;11.73;;
65477;SDS011;53678;39.642;22.430;2023-02-15T12:34:32;18.70;;;12.77;;
65477;SDS011;53678;39.642;22.430;2023-02-15T12:37:00;19.38;;;12.23;;
65477;SDS011;53678;39.642;22.430;2023-02-15T12:39:32;20.48;;;12.07;;
65477;SDS011;53678;39.642;22.430;2023-02-15T12:41:59;20.10;;;12.40;;
65477;SDS011;53678;39.642;22.430;2023-02-15T12:44:28;21.17;;;12.38;;
65477;SDS011;53678;39.642;22.430;2023-02-15T12:47:39;22.40;;;13.85;;
65477;SDS011;53678;39.642;22.430;2023-02-15T12:49:40;21.95;;;12.00;;
65477;SDS011;53678;39.642;22.430;2023-02-15T12:52:22;26.88;;;15.55;;
65477;SDS011;53678;39.642;22.430;2023-02-15T12:57:23;20.77;;;13.15;;
65477;SDS011;53678;39.642;22.430;2023-02-15T12:59:55;16.95;;;10.82;;
65477;SDS011;53678;39.642;22.430;2023-02-15T13:02:23;18.50;;;11.77;;
65477;SDS011;53678;39.642;22.430;2023-02-15T13:04:55;20.35;;;13.27;;
65477;SDS011;53678;39.642;22.430;2023-02-15T13:07:24;21.00;;;12.48;;
65477;SDS011;53678;39.642;22.430;2023-02-15T13:09:54;17.65;;;11.65;;
65477;SDS011;53678;39.642;22.430;2023-02-15T13:12:24;18.33;;;11.95;;
65477;SDS011;53678;39.642;22.430;2023-02-15T13:14:53;20.40;;;12.48;;
65477;SDS011;53678;39.642;22.430;2023-02-15T13:17:25;24.48;;;12.70;;
65477;SDS011;53678;39.642;22.430;2023-02-15T13:19:54;24.55;;;14.65;;
65477;SDS011;53678;39.642;22.430;2023-02-15T13:22:33;23.00;;;13.63;;
65477;SDS011;53678;39.642;22.430;2023-02-15T13:25:14;18.80;;;12.27;;
65477;SDS011;53678;39.642;22.430;2023-02-15T13:27:44;20.90;;;11.82;;
65477;SDS011;53678;39.642;22.430;2023-02-15T13:30:26;16.52;;;11.23;;
65477;SDS011;53678;39.642;22.430;2023-02-15T13:32:57;18.85;;;12.50;;
65477;SDS011;53678;39.642;22.430;2023-02-15T13:35:28;17.27;;;11.15;;
65477;SDS011;53678;39.642;22.430;2023-02-15T13:38:17;20.65;;;11.93;;
65477;SDS011;53678;39.642;22.430;2023-02-15T13:41:01;19.83;;;12.50;;
65477;SDS011;53678;39.642;22.430;2023-02-15T13:46:34;18.52;;;12.02;;
65477;SDS011;53678;39.642;22.430;2023-02-15T13:52:20;15.77;;;10.50;;
65477;SDS011;53678;39.642;22.430;2023-02-15T14:00:30;17.48;;;10.98;;
65477;SDS011;53678;39.642;22.430;2023-02-15T14:03:11;15.45;;;10.30;;
65477;SDS011;53678;39.642;22.430;2023-02-15T14:12:08;15.43;;;10.63;;
65477;SDS011;53678;39.642;22.430;2023-02-15T14:14:44;19.20;;;12.77;;
65477;SDS011;53678;39.642;22.430;2023-02-15T14:19:53;15.70;;;11.10;;
65477;SDS011;53678;39.642;22.430;2023-02-15T14:22:31;18.50;;;11.88;;
65477;SDS011;53678;39.642;22.430;2023-02-15T14:30:55;25.05;;;14.10;;
65477;SDS011;53678;39.642;22.430;2023-02-15T14:36:10;16.52;;;11.30;;
65477;SDS011;53678;39.642;22.430;2023-02-15T14:44:13;16.70;;;10.52;;
65477;SDS011;53678;39.642;22.430;2023-02-15T14:47:26;13.15;;;9.23;;
65477;SDS011;53678;39.642;22.430;2023-02-15T14:49:43;16.33;;;10.15;;
65477;SDS011;53678;39.642;22.430;2023-02-15T14:52:10;16.33;;;10.38;;
65477;SDS011;53678;39.642;22.430;2023-02-15T15:04:35;17.30;;;10.98;;
65477;SDS011;53678;39.642;22.430;2023-02-15T15:07:09;15.52;;;9.60;;
65477;SDS011;53678;39.642;22.430;2023-02-15T15:09:41;15.88;;;10.23;;
65477;SDS011;53678;39.642;22.430;2023-02-15T15:14:47;15.90;;;9.40;;
65477;SDS011;53678;39.642;22.430;2023-02-15T15:22:39;15.05;;;10.00;;
65477;SDS011;53678;39.642;22.430;2023-02-15T15:25:10;15.20;;;9.77;;
65477;SDS011;53678;39.642;22.430;2023-02-15T15:35:33;15.50;;;10.80;;
65477;SDS011;53678;39.642;22.430;2023-02-15T15:40:42;13.95;;;10.73;;
65477;SDS011;53678;39.642;22.430;2023-02-15T15:43:30;19.30;;;11.33;;
65477;SDS011;53678;39.642;22.430;2023-02-15T15:48:57;17.67;;;11.35;;
65477;SDS011;53678;39.642;22.430;2023-02-15T15:51:33;21.80;;;11.68;;
65477;SDS011;53678;39.642;22.430;2023-02-15T15:53:59;18.38;;;12.48;;
65477;SDS011;53678;39.642;22.430;2023-02-15T15:56:29;22.88;;;13.27;;
65477;SDS011;53678;39.642;22.430;2023-02-15T15:59:01;28.30;;;16.05;;
65477;SDS011;53678;39.642;22.430;2023-02-15T16:01:35;22.88;;;13.90;;
65477;SDS011;53678;39.642;22.430;2023-02-15T16:08:56;28.48;;;17.65;;
65477;SDS011;53678;39.642;22.430;2023-02-15T16:11:24;34.05;;;21.15;;
65477;SDS011;53678;39.642;22.430;2023-02-15T16:13:54;43.22;;;25.38;;
65477;SDS011;53678;39.642;22.430;2023-02-15T16:16:21;46.08;;;26.48;;
65477;SDS011;53678;39.642;22.430;2023-02-15T16:18:49;40.47;;;23.52;;
65477;SDS011;53678;39.642;22.430;2023-02-15T16:21:25;37.13;;;23.27;;
65477;SDS011;53678;39.642;22.430;2023-02-15T16:24:07;38.92;;;23.95;;
65477;SDS011;53678;39.642;22.430;2023-02-15T16:26:54;35.38;;;22.20;;
65477;SDS011;53678;39.642;22.430;2023-02-15T16:29:32;37.42;;;24.98;;
65477;SDS011;53678;39.642;22.430;2023-02-15T16:32:00;43.20;;;26.63;;
65477;SDS011;53678;39.642;22.430;2023-02-15T16:34:27;46.20;;;27.98;;
65477;SDS011;53678;39.642;22.430;2023-02-15T16:37:16;48.40;;;28.35;;
65477;SDS011;53678;39.642;22.430;2023-02-15T16:39:44;52.38;;;30.67;;
65477;SDS011;53678;39.642;22.430;2023-02-15T16:42:12;60.15;;;31.98;;
65477;SDS011;53678;39.642;22.430;2023-02-15T16:44:41;41.33;;;26.30;;
65477;SDS011;53678;39.642;22.430;2023-02-15T16:47:13;41.65;;;23.52;;
65477;SDS011;53678;39.642;22.430;2023-02-15T16:49:59;30.33;;;19.67;;
65477;SDS011;53678;39.642;22.430;2023-02-15T16:52:27;31.08;;;18.63;;
65477;SDS011;53678;39.642;22.430;2023-02-15T16:54:58;28.75;;;17.85;;
65477;SDS011;53678;39.642;22.430;2023-02-15T16:57:27;29.00;;;19.30;;
65477;SDS011;53678;39.642;22.430;2023-02-15T17:00:03;27.52;;;18.05;;
65477;SDS011;53678;39.642;22.430;2023-02-15T17:02:31;29.50;;;18.95;;
65477;SDS011;53678;39.642;22.430;2023-02-15T17:05:20;31.75;;;18.15;;
65477;SDS011;53678;39.642;22.430;2023-02-15T17:08:24;33.45;;;19.73;;
65477;SDS011;53678;39.642;22.430;2023-02-15T17:10:39;31.48;;;19.63;;
65477;SDS011;53678;39.642;22.430;2023-02-15T17:15:38;27.95;;;15.75;;
65477;SDS011;53678;39.642;22.430;2023-02-15T17:18:21;26.52;;;15.27;;
65477;SDS011;53678;39.642;22.430;2023-02-15T17:20:50;28.00;;;17.08;;
65477;SDS011;53678;39.642;22.430;2023-02-15T17:25:55;32.10;;;18.48;;
65477;SDS011;53678;39.642;22.430;2023-02-15T17:28:22;34.90;;;21.30;;
65477;SDS011;53678;39.642;22.430;2023-02-15T17:30:50;33.92;;;19.10;;